createdAt,value
2018-03-02T00:01:20.311Z,43.02
2018-03-02T00:03:48.787Z,42.77
2018-03-02T00:06:17.039Z,42.84
2018-03-02T00:08:45.328Z,43.50
2018-03-02T00:11:13.673Z,43.52
2018-03-02T00:13:42.079Z,43.52
2018-03-02T00:16:10.339Z,43.64
2018-03-02T00:18:38.623Z,43.52
2018-03-02T00:21:06.903Z,43.67
2018-03-02T00:23:35.284Z,43.70
2018-03-02T00:26:03.599Z,43.43
2018-03-02T00:28:31.902Z,44.04
2018-03-02T00:31:00.308Z,43.87
2018-03-02T00:33:30.605Z,43.70
2018-03-02T00:35:59.653Z,43.89
2018-03-02T00:38:28.032Z,44.38
2018-03-02T00:40:56.248Z,44.04
2018-03-02T00:43:24.512Z,43.52
2018-03-02T00:45:53.568Z,44.68
2018-03-02T00:48:21.867Z,44.49
2018-03-02T00:50:50.960Z,43.88
2018-03-02T00:53:19.452Z,44.50
2018-03-02T00:55:48.479Z,44.41
2018-03-02T00:58:16.779Z,44.60
2018-03-02T01:00:45.063Z,44.76
2018-03-02T01:03:13.364Z,44.66
2018-03-02T01:05:42.402Z,44.95
2018-03-02T01:08:10.680Z,45.17
2018-03-02T01:10:38.954Z,44.76
2018-03-02T01:13:07.264Z,44.76
2018-03-02T01:15:36.184Z,45.04
2018-03-02T01:18:04.472Z,44.56
2018-03-02T01:20:32.877Z,45.07
2018-03-02T01:23:01.154Z,45.54
2018-03-02T01:25:29.434Z,45.50
2018-03-02T01:27:58.747Z,45.56
2018-03-02T01:30:27.042Z,45.58
2018-03-02T01:32:55.439Z,45.72
2018-03-02T01:35:24.484Z,46.01
2018-03-02T01:37:52.812Z,45.60
2018-03-02T01:40:21.155Z,45.82
2018-03-02T01:42:49.495Z,45.54
2018-03-02T01:45:17.911Z,45.79
2018-03-02T01:47:46.291Z,45.68
2018-03-02T01:50:14.665Z,46.52
2018-03-02T01:52:43.851Z,46.37
2018-03-02T01:55:12.168Z,46.58
2018-03-02T01:57:40.449Z,46.04
2018-03-02T02:00:09.583Z,46.65
2018-03-02T02:02:38.042Z,46.49
2018-03-02T02:05:07.268Z,46.97
2018-03-02T02:07:35.701Z,46.70
2018-03-02T02:10:04.732Z,46.44
2018-03-02T02:12:33.117Z,46.91
2018-03-02T02:15:01.432Z,46.83
2018-03-02T02:17:30.474Z,46.98
2018-03-02T02:19:58.975Z,46.65
2018-03-02T02:22:27.846Z,47.13
2018-03-02T02:24:56.113Z,47.28
2018-03-02T02:27:24.395Z,47.61
2018-03-02T02:29:52.721Z,47.28
2018-03-02T02:32:21.746Z,47.35
2018-03-02T02:34:50.032Z,46.85
2018-03-02T02:37:18.276Z,47.11
2018-03-02T02:39:46.558Z,47.30
2018-03-02T02:42:14.827Z,47.50
2018-03-02T02:44:43.942Z,47.01
2018-03-02T02:47:12.330Z,47.46
2018-03-02T02:49:40.583Z,47.27
2018-03-02T02:52:08.877Z,47.78
2018-03-02T02:54:37.126Z,47.51
2018-03-02T02:57:05.407Z,47.82
2018-03-02T02:59:33.667Z,48.12
2018-03-02T03:02:02.054Z,47.98
2018-03-02T03:04:30.360Z,47.76
2018-03-02T03:06:58.683Z,47.84
2018-03-02T03:09:28.456Z,48.65
2018-03-02T03:11:56.783Z,48.13
2018-03-02T03:14:25.806Z,47.97
2018-03-02T03:16:54.085Z,48.09
2018-03-02T03:19:22.389Z,49.08
2018-03-02T03:21:50.675Z,48.47
2018-03-02T03:24:18.952Z,48.28
2018-03-02T03:26:47.206Z,48.08
2018-03-02T03:29:15.487Z,48.65
2018-03-02T03:31:43.827Z,47.90
2018-03-02T03:34:12.111Z,48.76
2018-03-02T03:36:40.383Z,48.89
2018-03-02T03:39:08.691Z,48.73
2018-03-02T03:41:36.963Z,48.88
2018-03-02T03:44:05.270Z,49.10
2018-03-02T03:46:34.321Z,48.84
2018-03-02T03:49:02.582Z,49.00
2018-03-02T03:51:30.862Z,49.02
2018-03-02T03:53:59.125Z,48.88
2018-03-02T03:56:27.619Z,49.14
2018-03-02T03:58:55.977Z,49.37
2018-03-02T04:01:24.287Z,49.15
2018-03-02T04:03:52.601Z,48.84
2018-03-02T04:06:21.610Z,49.06
2018-03-02T04:08:49.912Z,48.85
2018-03-02T04:11:18.395Z,48.94
2018-03-02T04:13:46.649Z,50.23
2018-03-02T04:16:14.903Z,49.56
2018-03-02T04:18:43.203Z,49.77
2018-03-02T04:21:11.487Z,49.49
2018-03-02T04:23:40.503Z,49.66
2018-03-02T04:26:08.831Z,49.73
2018-03-02T04:28:38.282Z,49.27
2018-03-02T04:31:06.551Z,49.68
2018-03-02T04:33:34.827Z,49.52
2018-03-02T04:36:03.809Z,49.78
2018-03-02T04:38:32.127Z,49.54
2018-03-02T04:41:01.253Z,49.74
2018-03-02T04:43:29.558Z,49.86
2018-03-02T04:45:57.946Z,49.67
2018-03-02T04:48:26.219Z,49.79
2018-03-02T04:50:54.493Z,49.68
2018-03-02T04:53:22.773Z,50.12
2018-03-02T04:55:51.041Z,49.31
2018-03-02T04:58:19.315Z,50.08
2018-03-02T05:00:47.578Z,50.21
2018-03-02T05:03:15.890Z,50.19
2018-03-02T05:05:44.249Z,50.20
2018-03-02T05:08:12.507Z,49.78
2018-03-02T05:10:40.889Z,50.27
2018-03-02T05:13:09.160Z,50.31
2018-03-02T05:15:37.436Z,49.60
2018-03-02T05:18:05.704Z,50.03
2018-03-02T05:20:34.186Z,50.07
2018-03-02T05:23:02.491Z,49.51
2018-03-02T05:25:30.784Z,50.09
2018-03-02T05:27:59.826Z,49.31
2018-03-02T05:30:28.132Z,49.92
2018-03-02T05:32:56.399Z,50.05
2018-03-02T05:35:24.963Z,50.38
2018-03-02T05:37:53.456Z,49.89
2018-03-02T05:40:22.184Z,49.98
2018-03-02T05:42:52.203Z,50.18
2018-03-02T05:45:20.524Z,50.46
2018-03-02T05:47:48.793Z,50.27
2018-03-02T05:50:17.063Z,50.45
2018-03-02T05:52:45.577Z,50.52
2018-03-02T05:55:13.836Z,50.16
2018-03-02T05:57:42.143Z,49.97
2018-03-02T06:00:11.183Z,50.14
2018-03-02T06:02:39.505Z,50.28
2018-03-02T06:05:07.803Z,50.17
2018-03-02T06:07:36.095Z,50.44
2018-03-02T06:10:04.494Z,50.56
2018-03-02T06:12:32.764Z,50.97
2018-03-02T06:15:01.027Z,51.06
2018-03-02T06:17:29.356Z,50.87
2018-03-02T06:19:57.681Z,50.78
2018-03-02T06:22:26.109Z,54.85
2018-03-02T06:24:56.338Z,50.11
2018-03-02T06:27:25.447Z,51.27
2018-03-02T06:29:54.580Z,49.92
2018-03-02T06:32:22.912Z,49.89
2018-03-02T06:34:52.312Z,49.63
2018-03-02T06:37:20.704Z,49.48
2018-03-02T06:39:49.872Z,50.61
2018-03-02T06:42:18.249Z,50.02
2018-03-02T06:44:46.529Z,50.13
2018-03-02T06:47:14.932Z,50.22
2018-03-02T06:49:43.976Z,50.31
2018-03-02T06:52:12.392Z,50.37
2018-03-02T06:54:41.573Z,50.58
2018-03-02T06:57:10.620Z,49.95
2018-03-02T06:59:38.912Z,51.11
2018-03-02T07:02:07.188Z,50.04
2018-03-02T07:04:35.539Z,49.86
2018-03-02T07:07:04.544Z,51.69
2018-03-02T07:09:32.813Z,55.25
2018-03-02T07:12:01.086Z,49.92
2018-03-02T07:14:29.367Z,50.69
2018-03-02T07:16:58.002Z,50.63
2018-03-02T07:19:28.577Z,52.47
2018-03-02T07:21:56.856Z,49.44
2018-03-02T07:24:25.197Z,50.24
2018-03-02T07:26:53.451Z,51.42
2018-03-02T07:29:22.608Z,50.24
2018-03-02T07:31:51.596Z,49.97
2018-03-02T07:34:20.056Z,49.38
2018-03-02T07:36:48.337Z,49.26
2018-03-02T07:39:16.630Z,49.27
2018-03-02T07:41:44.890Z,49.62
2018-03-02T07:44:13.232Z,50.07
2018-03-02T07:46:41.464Z,49.97
2018-03-02T07:49:09.815Z,49.73
2018-03-02T07:51:38.689Z,49.83
2018-03-02T07:54:07.005Z,49.81
2018-03-02T07:56:35.291Z,49.94
2018-03-02T07:59:03.549Z,50.27
2018-03-02T08:01:31.832Z,49.37
2018-03-02T08:04:00.097Z,49.64
2018-03-02T08:06:28.428Z,50.06
2018-03-02T08:08:57.463Z,49.77
2018-03-02T08:11:25.753Z,49.63
2018-03-02T08:13:54.083Z,49.30
2018-03-02T08:16:22.449Z,48.88
2018-03-02T08:18:51.484Z,48.82
2018-03-02T08:21:20.065Z,49.06
2018-03-02T08:23:48.356Z,48.98
2018-03-02T08:26:16.808Z,49.62
2018-03-02T08:28:46.307Z,48.49
2018-03-02T08:31:16.604Z,48.62
2018-03-02T08:33:44.891Z,48.45
2018-03-02T08:36:13.165Z,48.64
2018-03-02T08:38:41.532Z,47.71
2018-03-02T08:41:14.892Z,48.26
2018-03-02T08:43:43.150Z,48.25
2018-03-02T08:46:11.427Z,48.75
2018-03-02T08:48:39.793Z,48.26
2018-03-02T08:51:08.079Z,47.89
2018-03-02T08:53:36.419Z,47.55
2018-03-02T08:56:04.803Z,48.10
2018-03-02T08:58:33.111Z,47.87
2018-03-02T09:01:01.451Z,47.38
2018-03-02T09:03:29.855Z,47.28
2018-03-02T09:05:58.280Z,47.48
2018-03-02T09:08:27.325Z,47.00
2018-03-02T09:10:55.583Z,46.86
2018-03-02T09:13:24.683Z,46.75
2018-03-02T09:15:52.957Z,48.74
2018-03-02T09:18:21.422Z,48.11
2018-03-02T09:20:49.702Z,47.05
2018-03-02T09:23:17.992Z,47.62
2018-03-02T09:25:46.446Z,46.53
2018-03-02T09:28:14.811Z,47.02
2018-03-02T09:30:43.088Z,46.60
2018-03-02T09:33:11.376Z,46.49
2018-03-02T09:35:39.811Z,45.82
2018-03-02T09:38:08.147Z,46.34
2018-03-02T09:40:36.536Z,46.62
2018-03-02T09:43:04.968Z,46.73
2018-03-02T09:45:34.763Z,46.38
2018-03-02T09:48:04.644Z,45.53
2018-03-02T09:50:32.925Z,46.27
2018-03-02T09:53:01.245Z,46.26
2018-03-02T09:55:29.907Z,45.44
2018-03-02T09:57:58.515Z,45.78
2018-03-02T10:00:27.774Z,45.13
2018-03-02T10:02:56.217Z,45.66
2018-03-02T10:05:24.493Z,45.78
2018-03-02T10:07:52.765Z,45.67
2018-03-02T10:10:21.078Z,45.12
2018-03-02T10:12:49.391Z,41.75
2018-03-02T10:15:18.434Z,41.66
2018-03-02T10:17:46.726Z,41.91
2018-03-02T10:20:15.023Z,41.39
2018-03-02T10:22:43.343Z,40.15
2018-03-02T10:25:11.626Z,41.00
2018-03-02T10:27:39.927Z,40.71
2018-03-02T10:30:08.945Z,41.69
2018-03-02T10:32:37.258Z,40.67
2018-03-02T10:35:05.653Z,40.57
2018-03-02T10:37:33.933Z,40.76
2018-03-02T10:40:02.287Z,42.16
2018-03-02T10:42:30.681Z,43.42
2018-03-02T10:45:02.058Z,40.93
2018-03-02T10:47:30.345Z,40.38
2018-03-02T10:49:59.489Z,40.82
2018-03-02T10:52:27.869Z,41.06
2018-03-02T10:54:56.110Z,41.01
2018-03-02T10:57:24.476Z,40.82
2018-03-02T10:59:53.515Z,41.50
2018-03-02T11:02:21.822Z,41.03
2018-03-02T11:04:50.082Z,40.94
2018-03-02T11:07:18.352Z,40.32
2018-03-02T11:09:46.638Z,40.05
2018-03-02T11:12:15.036Z,40.47
2018-03-02T11:14:43.464Z,40.22
2018-03-02T11:17:11.735Z,40.95
2018-03-02T11:19:40.640Z,41.18
2018-03-02T11:22:08.902Z,41.41
2018-03-02T11:24:37.210Z,41.59
2018-03-02T11:27:05.511Z,41.80
2018-03-02T11:29:34.540Z,41.47
2018-03-02T11:32:02.836Z,41.54
2018-03-02T11:34:31.099Z,42.25
2018-03-02T11:36:59.383Z,41.36
2018-03-02T11:39:28.820Z,41.70
2018-03-02T11:41:57.153Z,41.53
2018-03-02T11:44:25.497Z,41.80
2018-03-02T11:46:54.599Z,41.20
2018-03-02T11:49:23.022Z,41.37
2018-03-02T11:51:51.288Z,40.91
2018-03-02T11:54:19.771Z,40.27
2018-03-02T11:56:48.036Z,39.51
2018-03-02T11:59:17.299Z,39.86
2018-03-02T12:01:45.565Z,40.01
2018-03-02T12:04:14.806Z,40.33
2018-03-02T12:06:43.118Z,40.10
2018-03-02T12:09:11.558Z,39.78
2018-03-02T12:11:40.670Z,39.39
2018-03-02T12:14:08.933Z,39.60
2018-03-02T12:16:37.265Z,40.12
2018-03-02T12:19:06.302Z,40.07
2018-03-02T12:21:35.392Z,39.62
2018-03-02T12:24:03.712Z,40.09
2018-03-02T12:26:32.793Z,40.12
2018-03-02T12:29:02.183Z,40.26
2018-03-02T12:31:30.474Z,39.88
2018-03-02T12:34:00.262Z,40.71
2018-03-02T12:36:33.823Z,40.85
2018-03-02T12:39:02.091Z,40.69
2018-03-02T12:41:30.351Z,40.25
2018-03-02T12:43:59.424Z,40.38
2018-03-02T12:46:27.703Z,40.44
2018-03-02T12:48:56.772Z,40.47
2018-03-02T12:51:25.462Z,40.45
2018-03-02T12:53:53.727Z,40.72
2018-03-02T12:56:22.103Z,40.62
2018-03-02T12:58:50.389Z,40.28
2018-03-02T13:01:18.655Z,40.25
2018-03-02T13:03:47.037Z,40.49
2018-03-02T13:06:15.392Z,39.92
2018-03-02T13:08:43.698Z,40.00
2018-03-02T13:11:12.021Z,40.13
2018-03-02T13:13:40.333Z,40.39
2018-03-02T13:16:08.598Z,40.06
2018-03-02T13:18:43.791Z,40.07
2018-03-02T13:21:12.898Z,40.17
2018-03-02T13:23:41.180Z,40.35
2018-03-02T13:26:09.468Z,40.22
2018-03-02T13:28:49.328Z,39.94
2018-03-02T13:31:17.639Z,40.23
2018-03-02T13:34:04.328Z,40.47
2018-03-02T13:36:32.679Z,40.34
2018-03-02T13:39:01.012Z,40.34
2018-03-02T13:41:47.973Z,41.13
2018-03-02T13:44:16.780Z,41.35
2018-03-02T13:46:45.054Z,41.03
2018-03-02T13:49:30.994Z,41.32
2018-03-02T13:51:59.310Z,41.86
2018-03-02T13:54:27.732Z,41.03
2018-03-02T13:57:13.114Z,40.62
2018-03-02T13:59:41.464Z,41.97
2018-03-02T14:05:05.518Z,41.04
2018-03-02T14:07:33.820Z,41.88
2018-03-02T14:10:02.168Z,41.25
2018-03-02T14:12:30.463Z,40.98
2018-03-02T14:14:59.479Z,40.73
2018-03-02T14:17:29.367Z,41.99
2018-03-02T14:19:57.657Z,40.63
2018-03-02T14:22:26.238Z,41.00
2018-03-02T14:24:54.827Z,40.86
2018-03-02T14:27:23.224Z,41.17
2018-03-02T14:29:52.404Z,40.60
2018-03-02T14:32:20.887Z,41.17
2018-03-02T14:34:50.870Z,40.54
2018-03-02T14:37:19.166Z,40.89
2018-03-02T14:39:47.490Z,40.36
2018-03-02T14:42:15.767Z,40.28
2018-03-02T14:44:44.066Z,40.48
2018-03-02T14:47:12.549Z,40.04
2018-03-02T14:49:40.819Z,40.28
2018-03-02T14:52:09.506Z,40.33
2018-03-02T14:54:37.887Z,40.16
2018-03-02T14:57:06.386Z,40.52
2018-03-02T14:59:35.431Z,40.14
2018-03-02T15:02:03.726Z,40.88
2018-03-02T15:04:32.896Z,40.93
2018-03-02T15:07:01.204Z,40.84
2018-03-02T15:09:29.541Z,40.72
2018-03-02T15:11:58.679Z,41.01
2018-03-02T15:14:26.957Z,41.04
2018-03-02T15:16:55.659Z,41.16
2018-03-02T15:19:25.556Z,41.18
2018-03-02T15:21:54.594Z,41.15
2018-03-02T15:24:24.725Z,41.56
2018-03-02T15:26:53.204Z,41.28
2018-03-02T15:29:23.117Z,41.35
2018-03-02T15:31:52.183Z,41.55
2018-03-02T15:34:21.448Z,41.68
2018-03-02T15:36:49.722Z,41.79
2018-03-02T15:39:18.368Z,41.64
2018-03-02T15:41:47.473Z,41.72
2018-03-02T15:44:15.749Z,41.89
2018-03-02T15:46:44.020Z,42.56
2018-03-02T15:49:12.301Z,42.04
2018-03-02T15:51:40.626Z,42.50
2018-03-02T15:54:09.657Z,42.49
2018-03-02T15:56:38.748Z,42.54
2018-03-02T15:59:07.039Z,42.52
2018-03-02T16:01:36.168Z,42.34
2018-03-02T16:04:04.442Z,42.70
2018-03-02T16:06:33.970Z,42.91
2018-03-02T16:09:04.075Z,42.71
2018-03-02T16:11:33.039Z,43.29
2018-03-02T16:14:01.473Z,43.31
2018-03-02T16:16:30.290Z,43.57
2018-03-02T16:18:58.772Z,43.48
2018-03-02T16:21:27.137Z,43.98
2018-03-02T16:23:56.441Z,44.22
2018-03-02T16:26:25.765Z,45.72
2018-03-02T16:28:54.097Z,46.95
2018-03-02T16:31:23.135Z,48.34
2018-03-02T16:33:51.443Z,48.73
2018-03-02T16:36:20.018Z,49.23
2018-03-02T16:38:48.604Z,49.18
2018-03-02T16:41:17.781Z,49.72
2018-03-02T16:43:46.031Z,49.91
2018-03-02T16:46:14.308Z,50.20
2018-03-02T16:48:42.608Z,50.06
2018-03-02T16:51:10.970Z,50.42
2018-03-02T16:53:39.363Z,50.47
2018-03-02T16:56:07.678Z,50.70
2018-03-02T16:58:36.713Z,50.70
2018-03-02T17:01:04.985Z,50.85
2018-03-02T17:03:33.467Z,50.95
2018-03-02T17:06:01.742Z,52.06
2018-03-02T17:08:30.063Z,52.45
2018-03-02T17:10:58.335Z,52.93
2018-03-02T17:13:26.647Z,53.71
2018-03-02T17:15:54.890Z,54.81
2018-03-02T17:18:23.935Z,55.40
2018-03-02T17:20:52.229Z,56.55
2018-03-02T17:23:20.479Z,56.99
2018-03-02T17:25:48.762Z,57.96
2018-03-02T17:28:17.051Z,58.43
2018-03-02T17:30:45.322Z,59.25
2018-03-02T17:33:13.937Z,60.74
2018-03-02T17:35:43.009Z,61.15
2018-03-02T17:38:11.357Z,61.95
2018-03-02T17:40:39.633Z,62.56
2018-03-02T17:43:08.050Z,63.31
2018-03-02T17:45:36.384Z,62.83
2018-03-02T17:48:04.673Z,63.96
2018-03-02T17:50:32.943Z,64.44
2018-03-02T17:53:01.258Z,65.31
2018-03-02T17:55:29.571Z,63.80
2018-03-02T17:57:58.828Z,66.34
2018-03-02T18:00:27.089Z,70.29
2018-03-02T18:02:55.704Z,72.12
2018-03-02T18:05:23.988Z,74.67
2018-03-02T18:07:52.282Z,76.15
2018-03-02T18:10:20.853Z,76.16
2018-03-02T18:12:50.497Z,77.22
2018-03-02T18:15:18.797Z,79.65
2018-03-02T18:17:47.976Z,80.01
2018-03-02T18:20:17.123Z,81.05
2018-03-02T18:22:46.232Z,81.09
2018-03-02T18:25:14.666Z,80.51
2018-03-02T18:27:42.978Z,80.51
2018-03-02T18:30:15.777Z,81.67
2018-03-02T18:32:44.041Z,82.23
2018-03-02T18:35:12.406Z,82.14
2018-03-02T18:37:41.671Z,82.53
2018-03-02T18:40:09.980Z,82.28
2018-03-02T18:42:39.277Z,82.16
2018-03-02T18:45:07.649Z,83.58
2018-03-02T18:47:37.875Z,84.84
2018-03-02T18:50:06.207Z,84.30
2018-03-02T18:52:34.495Z,84.41
2018-03-02T18:55:02.799Z,84.49
2018-03-02T18:57:31.218Z,85.08
2018-03-02T18:59:59.491Z,84.87
2018-03-02T19:02:29.716Z,84.06
2018-03-02T19:04:58.179Z,84.34
2018-03-02T19:07:26.456Z,84.79
2018-03-02T19:09:54.926Z,84.72
2018-03-02T19:12:23.212Z,85.61
2018-03-02T19:14:51.529Z,85.27
2018-03-02T19:17:20.600Z,85.11
2018-03-02T19:19:48.994Z,85.53
2018-03-02T19:22:17.368Z,85.01
2018-03-02T19:24:46.368Z,84.39
2018-03-02T19:27:14.936Z,84.74
2018-03-02T19:29:43.224Z,84.96
2018-03-02T19:32:11.630Z,85.73
2018-03-02T19:34:40.716Z,84.36
2018-03-02T19:37:09.663Z,84.94
2018-03-02T19:39:37.991Z,84.06
2018-03-02T19:42:07.047Z,84.00
2018-03-02T19:44:35.524Z,84.60
2018-03-02T19:47:03.823Z,84.75
2018-03-02T19:49:32.903Z,84.38
2018-03-02T19:52:01.254Z,84.61
2018-03-02T19:54:29.549Z,84.71
2018-03-02T19:56:57.924Z,84.50
2018-03-02T19:59:27.296Z,84.67
2018-03-02T20:01:55.692Z,84.07
2018-03-02T20:04:24.014Z,84.30
2018-03-02T20:06:53.163Z,85.21
2018-03-02T20:09:21.646Z,85.38
2018-03-02T20:11:49.942Z,85.44
2018-03-02T20:14:18.300Z,85.71
2018-03-02T20:16:47.724Z,85.57
2018-03-02T20:19:16.015Z,85.51
2018-03-02T20:21:44.294Z,84.27
2018-03-02T20:24:13.382Z,85.24
2018-03-02T20:26:42.661Z,84.97
2018-03-02T20:29:11.040Z,85.02
2018-03-02T20:31:39.360Z,85.10
2018-03-02T20:34:07.911Z,85.11
2018-03-02T20:36:37.037Z,84.85
2018-03-02T20:39:05.469Z,85.51
2018-03-02T20:41:33.910Z,84.21
2018-03-02T20:44:03.168Z,84.17
2018-03-02T20:46:32.217Z,85.32
2018-03-02T20:49:01.716Z,85.52
2018-03-02T20:54:04.703Z,85.88
2018-03-02T20:56:33.018Z,86.31
2018-03-02T20:59:01.428Z,86.74
2018-03-02T21:01:30.623Z,86.62
2018-03-02T21:03:59.651Z,86.44
2018-03-02T21:06:27.978Z,86.60
2018-03-02T21:08:57.148Z,86.69
2018-03-02T21:11:25.476Z,86.20
2018-03-02T21:13:54.617Z,86.42
2018-03-02T21:16:22.936Z,86.52
2018-03-02T21:18:51.991Z,85.55
2018-03-02T21:21:20.304Z,85.55
2018-03-02T21:23:49.444Z,85.12
2018-03-02T21:26:17.769Z,84.94
2018-03-02T21:28:47.632Z,84.30
2018-03-02T21:31:16.826Z,83.70
2018-03-02T21:33:45.103Z,81.77
2018-03-02T21:36:13.584Z,82.17
2018-03-02T21:38:43.782Z,83.83
2018-03-02T21:41:13.110Z,84.04
2018-03-02T21:43:42.431Z,84.90
2018-03-02T21:46:10.822Z,83.14
2018-03-02T21:48:39.919Z,82.48
2018-03-02T21:51:08.962Z,83.97
2018-03-02T21:53:37.364Z,83.33
2018-03-02T21:56:05.689Z,83.03
2018-03-02T21:58:36.956Z,83.99
2018-03-02T22:01:05.240Z,83.86
2018-03-02T22:03:33.548Z,84.22
2018-03-02T22:06:01.853Z,84.59
2018-03-02T22:08:31.320Z,84.21
2018-03-02T22:11:00.021Z,83.57
2018-03-02T22:13:29.080Z,84.17
2018-03-02T22:15:57.409Z,84.26
2018-03-02T22:18:25.716Z,84.17
2018-03-02T22:20:54.001Z,84.18
2018-03-02T22:23:22.796Z,84.41
2018-03-02T22:25:53.840Z,85.36
2018-03-02T22:28:22.498Z,84.91
2018-03-02T22:30:50.792Z,84.80
2018-03-02T22:33:19.300Z,84.55
2018-03-02T22:35:48.263Z,84.65
2018-03-02T22:38:16.549Z,84.26
2018-03-02T22:40:44.916Z,84.29
2018-03-02T22:43:13.402Z,84.78
2018-03-02T22:45:41.794Z,84.07
2018-03-02T22:48:10.708Z,84.04
2018-03-02T22:50:39.657Z,84.22
2018-03-02T22:53:07.951Z,84.28
2018-03-02T22:55:36.247Z,84.77
2018-03-02T22:58:05.096Z,84.70
2018-03-02T23:00:33.543Z,85.07
2018-03-02T23:03:01.964Z,83.27
2018-03-02T23:05:30.296Z,83.43
2018-03-02T23:07:58.709Z,83.95
2018-03-02T23:10:27.093Z,84.29
2018-03-02T23:12:55.428Z,83.88
2018-03-02T23:15:24.570Z,83.33
2018-03-02T23:17:53.163Z,83.85
2018-03-02T23:20:21.495Z,83.90
2018-03-02T23:22:49.970Z,83.67
2018-03-02T23:25:18.281Z,84.00
2018-03-02T23:27:46.554Z,83.69
2018-03-02T23:30:14.811Z,83.11
2018-03-02T23:32:43.963Z,82.59
2018-03-02T23:35:12.272Z,82.53
2018-03-02T23:37:40.570Z,82.79
2018-03-02T23:40:08.884Z,82.92
2018-03-02T23:42:38.267Z,83.32
2018-03-02T23:45:07.355Z,82.94
2018-03-02T23:47:35.629Z,83.59
2018-03-02T23:50:04.710Z,83.39
2018-03-02T23:52:32.992Z,83.81
2018-03-02T23:55:01.339Z,84.94
2018-03-02T23:57:29.653Z,84.75
2018-03-02T23:59:57.911Z,83.96
